sensor_id;sensor_type;location;lat;lon;timestamp;P1;durP1;ratioP1;P2;durP2;ratioP2
9906;SDS011;4992;51.628;6.664;2022-07-19T00:02:13;3.53;;;2.20;;
9906;SDS011;4992;51.628;6.664;2022-07-19T00:04:38;2.15;;;1.92;;
9906;SDS011;4992;51.628;6.664;2022-07-19T00:07:04;3.47;;;2.58;;
9906;SDS011;4992;51.628;6.664;2022-07-19T00:09:29;4.38;;;2.00;;
9906;SDS011;4992;51.628;6.664;2022-07-19T00:11:55;4.38;;;2.60;;
9906;SDS011;4992;51.628;6.664;2022-07-19T00:14:21;2.60;;;2.22;;
9906;SDS011;4992;51.628;6.664;2022-07-19T00:16:47;6.93;;;2.10;;
9906;SDS011;4992;51.628;6.664;2022-07-19T00:19:13;2.17;;;1.92;;
9906;SDS011;4992;51.628;6.664;2022-07-19T00:21:39;3.25;;;2.13;;
9906;SDS011;4992;51.628;6.664;2022-07-19T00:24:04;2.33;;;2.03;;
9906;SDS011;4992;51.628;6.664;2022-07-19T00:26:30;3.85;;;2.20;;
9906;SDS011;4992;51.628;6.664;2022-07-19T00:28:56;3.42;;;2.13;;
9906;SDS011;4992;51.628;6.664;2022-07-19T00:31:22;4.38;;;2.50;;
9906;SDS011;4992;51.628;6.664;2022-07-19T00:33:49;2.40;;;2.00;;
9906;SDS011;4992;51.628;6.664;2022-07-19T00:36:15;2.78;;;2.20;;
9906;SDS011;4992;51.628;6.664;2022-07-19T00:38:40;2.70;;;2.30;;
9906;SDS011;4992;51.628;6.664;2022-07-19T00:41:06;2.22;;;2.03;;
9906;SDS011;4992;51.628;6.664;2022-07-19T00:43:32;4.03;;;2.33;;
9906;SDS011;4992;51.628;6.664;2022-07-19T00:45:57;2.25;;;2.03;;
9906;SDS011;4992;51.628;6.664;2022-07-19T00:48:23;2.88;;;2.47;;
9906;SDS011;4992;51.628;6.664;2022-07-19T00:50:49;4.13;;;2.28;;
9906;SDS011;4992;51.628;6.664;2022-07-19T00:53:14;3.60;;;2.13;;
9906;SDS011;4992;51.628;6.664;2022-07-19T00:55:40;3.42;;;2.05;;
9906;SDS011;4992;51.628;6.664;2022-07-19T00:58:08;3.90;;;2.78;;
9906;SDS011;4992;51.628;6.664;2022-07-19T01:00:35;2.90;;;2.55;;
9906;SDS011;4992;51.628;6.664;2022-07-19T01:03:01;4.22;;;2.65;;
9906;SDS011;4992;51.628;6.664;2022-07-19T01:05:27;4.93;;;2.67;;
9906;SDS011;4992;51.628;6.664;2022-07-19T01:07:53;3.15;;;2.47;;
9906;SDS011;4992;51.628;6.664;2022-07-19T01:10:18;4.53;;;2.40;;
9906;SDS011;4992;51.628;6.664;2022-07-19T01:12:44;3.28;;;2.20;;
9906;SDS011;4992;51.628;6.664;2022-07-19T01:15:12;3.30;;;2.58;;
9906;SDS011;4992;51.628;6.664;2022-07-19T01:17:43;3.10;;;2.33;;
9906;SDS011;4992;51.628;6.664;2022-07-19T01:20:09;3.05;;;2.15;;
9906;SDS011;4992;51.628;6.664;2022-07-19T01:22:35;4.70;;;2.63;;
9906;SDS011;4992;51.628;6.664;2022-07-19T01:25:00;3.13;;;2.83;;
9906;SDS011;4992;51.628;6.664;2022-07-19T01:27:26;2.78;;;2.55;;
9906;SDS011;4992;51.628;6.664;2022-07-19T01:29:51;3.60;;;2.30;;
9906;SDS011;4992;51.628;6.664;2022-07-19T01:32:17;5.68;;;2.55;;
9906;SDS011;4992;51.628;6.664;2022-07-19T01:34:42;3.97;;;2.50;;
9906;SDS011;4992;51.628;6.664;2022-07-19T01:37:08;2.40;;;2.20;;
9906;SDS011;4992;51.628;6.664;2022-07-19T01:39:33;3.80;;;2.58;;
9906;SDS011;4992;51.628;6.664;2022-07-19T01:41:59;3.75;;;2.25;;
9906;SDS011;4992;51.628;6.664;2022-07-19T01:44:25;2.70;;;2.42;;
9906;SDS011;4992;51.628;6.664;2022-07-19T01:46:50;3.83;;;2.10;;
9906;SDS011;4992;51.628;6.664;2022-07-19T01:49:16;3.40;;;2.45;;
9906;SDS011;4992;51.628;6.664;2022-07-19T01:51:41;3.08;;;2.15;;
9906;SDS011;4992;51.628;6.664;2022-07-19T01:54:07;3.80;;;2.55;;
9906;SDS011;4992;51.628;6.664;2022-07-19T01:56:32;3.47;;;2.40;;
9906;SDS011;4992;51.628;6.664;2022-07-19T01:58:58;3.47;;;2.15;;
9906;SDS011;4992;51.628;6.664;2022-07-19T02:01:23;4.68;;;2.28;;
9906;SDS011;4992;51.628;6.664;2022-07-19T02:03:49;5.70;;;2.42;;
9906;SDS011;4992;51.628;6.664;2022-07-19T02:06:14;2.97;;;2.50;;
9906;SDS011;4992;51.628;6.664;2022-07-19T02:08:40;3.53;;;2.50;;
9906;SDS011;4992;51.628;6.664;2022-07-19T02:11:06;7.00;;;2.67;;
9906;SDS011;4992;51.628;6.664;2022-07-19T02:13:50;3.15;;;2.45;;
9906;SDS011;4992;51.628;6.664;2022-07-19T02:16:16;3.08;;;2.38;;
9906;SDS011;4992;51.628;6.664;2022-07-19T02:18:42;2.97;;;2.58;;
9906;SDS011;4992;51.628;6.664;2022-07-19T02:21:07;5.28;;;2.33;;
9906;SDS011;4992;51.628;6.664;2022-07-19T02:23:33;4.82;;;2.70;;
9906;SDS011;4992;51.628;6.664;2022-07-19T02:25:58;3.30;;;2.55;;
9906;SDS011;4992;51.628;6.664;2022-07-19T02:28:24;2.90;;;2.70;;
9906;SDS011;4992;51.628;6.664;2022-07-19T02:30:49;3.55;;;2.85;;
9906;SDS011;4992;51.628;6.664;2022-07-19T02:33:15;4.68;;;2.78;;
9906;SDS011;4992;51.628;6.664;2022-07-19T02:35:40;3.75;;;2.80;;
9906;SDS011;4992;51.628;6.664;2022-07-19T02:38:06;2.95;;;2.72;;
9906;SDS011;4992;51.628;6.664;2022-07-19T02:40:31;4.15;;;2.85;;
9906;SDS011;4992;51.628;6.664;2022-07-19T02:42:57;3.40;;;2.63;;
9906;SDS011;4992;51.628;6.664;2022-07-19T02:45:22;3.95;;;2.78;;
9906;SDS011;4992;51.628;6.664;2022-07-19T02:47:48;3.92;;;2.88;;
9906;SDS011;4992;51.628;6.664;2022-07-19T02:50:13;3.70;;;2.83;;
9906;SDS011;4992;51.628;6.664;2022-07-19T02:52:39;4.10;;;3.00;;
9906;SDS011;4992;51.628;6.664;2022-07-19T02:55:05;3.80;;;3.13;;
9906;SDS011;4992;51.628;6.664;2022-07-19T02:57:31;3.63;;;2.88;;
9906;SDS011;4992;51.628;6.664;2022-07-19T02:59:56;4.53;;;3.10;;
9906;SDS011;4992;51.628;6.664;2022-07-19T03:02:22;4.70;;;2.97;;
9906;SDS011;4992;51.628;6.664;2022-07-19T03:04:48;3.95;;;3.03;;
9906;SDS011;4992;51.628;6.664;2022-07-19T03:07:14;3.80;;;2.90;;
9906;SDS011;4992;51.628;6.664;2022-07-19T03:09:39;3.38;;;3.08;;
9906;SDS011;4992;51.628;6.664;2022-07-19T03:12:05;3.22;;;2.92;;
9906;SDS011;4992;51.628;6.664;2022-07-19T03:14:31;6.72;;;2.70;;
9906;SDS011;4992;51.628;6.664;2022-07-19T03:16:57;3.13;;;2.55;;
9906;SDS011;4992;51.628;6.664;2022-07-19T03:19:23;3.85;;;2.90;;
9906;SDS011;4992;51.628;6.664;2022-07-19T03:21:51;3.40;;;3.10;;
9906;SDS011;4992;51.628;6.664;2022-07-19T03:24:17;3.45;;;3.10;;
9906;SDS011;4992;51.628;6.664;2022-07-19T03:26:43;5.82;;;3.45;;
9906;SDS011;4992;51.628;6.664;2022-07-19T03:29:08;5.05;;;2.97;;
9906;SDS011;4992;51.628;6.664;2022-07-19T03:31:34;6.97;;;3.17;;
9906;SDS011;4992;51.628;6.664;2022-07-19T03:33:59;3.45;;;3.15;;
9906;SDS011;4992;51.628;6.664;2022-07-19T03:36:25;3.13;;;2.83;;
9906;SDS011;4992;51.628;6.664;2022-07-19T03:38:51;4.90;;;3.03;;
9906;SDS011;4992;51.628;6.664;2022-07-19T03:41:16;3.75;;;3.38;;
9906;SDS011;4992;51.628;6.664;2022-07-19T03:43:42;4.75;;;3.40;;
9906;SDS011;4992;51.628;6.664;2022-07-19T03:46:07;4.80;;;3.33;;
9906;SDS011;4992;51.628;6.664;2022-07-19T03:48:33;3.33;;;3.03;;
9906;SDS011;4992;51.628;6.664;2022-07-19T03:50:58;5.25;;;3.50;;
9906;SDS011;4992;51.628;6.664;2022-07-19T03:53:24;4.05;;;3.42;;
9906;SDS011;4992;51.628;6.664;2022-07-19T03:55:49;5.53;;;4.03;;
9906;SDS011;4992;51.628;6.664;2022-07-19T03:58:15;4.65;;;3.30;;
9906;SDS011;4992;51.628;6.664;2022-07-19T04:00:40;5.50;;;3.42;;
9906;SDS011;4992;51.628;6.664;2022-07-19T04:03:06;5.05;;;3.40;;
9906;SDS011;4992;51.628;6.664;2022-07-19T04:05:31;3.47;;;3.17;;
9906;SDS011;4992;51.628;6.664;2022-07-19T04:07:57;4.72;;;3.42;;
9906;SDS011;4992;51.628;6.664;2022-07-19T04:10:22;4.35;;;3.33;;
9906;SDS011;4992;51.628;6.664;2022-07-19T04:12:48;6.07;;;3.78;;
9906;SDS011;4992;51.628;6.664;2022-07-19T04:15:14;4.85;;;3.40;;
9906;SDS011;4992;51.628;6.664;2022-07-19T04:17:39;3.17;;;2.88;;
9906;SDS011;4992;51.628;6.664;2022-07-19T04:20:05;5.70;;;3.53;;
9906;SDS011;4992;51.628;6.664;2022-07-19T04:22:31;5.30;;;3.20;;
9906;SDS011;4992;51.628;6.664;2022-07-19T04:24:57;3.25;;;2.95;;
9906;SDS011;4992;51.628;6.664;2022-07-19T04:27:23;4.43;;;3.30;;
9906;SDS011;4992;51.628;6.664;2022-07-19T04:29:48;3.67;;;3.10;;
9906;SDS011;4992;51.628;6.664;2022-07-19T04:32:14;4.25;;;3.45;;
9906;SDS011;4992;51.628;6.664;2022-07-19T04:34:39;7.13;;;3.78;;
9906;SDS011;4992;51.628;6.664;2022-07-19T04:37:05;7.47;;;3.40;;
9906;SDS011;4992;51.628;6.664;2022-07-19T04:39:31;4.90;;;3.25;;
9906;SDS011;4992;51.628;6.664;2022-07-19T04:41:56;4.75;;;3.40;;
9906;SDS011;4992;51.628;6.664;2022-07-19T04:44:22;6.93;;;3.40;;
9906;SDS011;4992;51.628;6.664;2022-07-19T04:46:47;5.22;;;3.45;;
9906;SDS011;4992;51.628;6.664;2022-07-19T04:49:13;7.38;;;3.70;;
9906;SDS011;4992;51.628;6.664;2022-07-19T04:51:39;8.00;;;3.13;;
9906;SDS011;4992;51.628;6.664;2022-07-19T04:54:04;9.52;;;3.80;;
9906;SDS011;4992;51.628;6.664;2022-07-19T04:56:30;5.15;;;3.42;;
9906;SDS011;4992;51.628;6.664;2022-07-19T04:58:55;8.48;;;3.60;;
9906;SDS011;4992;51.628;6.664;2022-07-19T05:01:21;7.50;;;3.92;;
9906;SDS011;4992;51.628;6.664;2022-07-19T05:03:46;7.05;;;3.88;;
9906;SDS011;4992;51.628;6.664;2022-07-19T05:06:12;6.70;;;3.72;;
9906;SDS011;4992;51.628;6.664;2022-07-19T05:08:38;5.75;;;3.50;;
9906;SDS011;4992;51.628;6.664;2022-07-19T05:11:03;7.97;;;3.97;;
9906;SDS011;4992;51.628;6.664;2022-07-19T05:13:29;7.88;;;4.07;;
9906;SDS011;4992;51.628;6.664;2022-07-19T05:15:54;7.40;;;3.92;;
9906;SDS011;4992;51.628;6.664;2022-07-19T05:18:20;8.18;;;3.78;;
9906;SDS011;4992;51.628;6.664;2022-07-19T05:20:45;6.82;;;3.75;;
9906;SDS011;4992;51.628;6.664;2022-07-19T05:23:12;7.57;;;3.10;;
9906;SDS011;4992;51.628;6.664;2022-07-19T05:25:37;5.88;;;3.17;;
9906;SDS011;4992;51.628;6.664;2022-07-19T05:28:03;7.25;;;3.50;;
9906;SDS011;4992;51.628;6.664;2022-07-19T05:30:29;4.65;;;3.72;;
9906;SDS011;4992;51.628;6.664;2022-07-19T05:32:55;5.13;;;3.63;;
9906;SDS011;4992;51.628;6.664;2022-07-19T05:35:20;6.60;;;3.28;;
9906;SDS011;4992;51.628;6.664;2022-07-19T05:37:46;6.40;;;3.72;;
9906;SDS011;4992;51.628;6.664;2022-07-19T05:40:12;7.00;;;3.40;;
9906;SDS011;4992;51.628;6.664;2022-07-19T05:42:37;5.60;;;3.78;;
9906;SDS011;4992;51.628;6.664;2022-07-19T05:45:03;5.32;;;3.70;;
9906;SDS011;4992;51.628;6.664;2022-07-19T05:47:29;6.18;;;3.40;;
9906;SDS011;4992;51.628;6.664;2022-07-19T05:49:54;8.48;;;2.92;;
9906;SDS011;4992;51.628;6.664;2022-07-19T05:52:21;8.55;;;3.17;;
9906;SDS011;4992;51.628;6.664;2022-07-19T05:54:46;9.93;;;3.60;;
9906;SDS011;4992;51.628;6.664;2022-07-19T05:57:12;7.13;;;3.25;;
9906;SDS011;4992;51.628;6.664;2022-07-19T05:59:37;10.30;;;3.38;;
9906;SDS011;4992;51.628;6.664;2022-07-19T06:02:03;15.38;;;3.63;;
9906;SDS011;4992;51.628;6.664;2022-07-19T06:04:28;21.52;;;4.10;;
9906;SDS011;4992;51.628;6.664;2022-07-19T06:06:54;18.02;;;4.35;;
9906;SDS011;4992;51.628;6.664;2022-07-19T06:09:19;19.27;;;4.05;;
9906;SDS011;4992;51.628;6.664;2022-07-19T06:11:45;13.25;;;3.70;;
9906;SDS011;4992;51.628;6.664;2022-07-19T06:14:11;14.32;;;3.95;;
9906;SDS011;4992;51.628;6.664;2022-07-19T06:16:37;14.18;;;3.75;;
9906;SDS011;4992;51.628;6.664;2022-07-19T06:19:06;11.32;;;3.17;;
9906;SDS011;4992;51.628;6.664;2022-07-19T06:21:32;21.55;;;3.20;;
9906;SDS011;4992;51.628;6.664;2022-07-19T06:23:58;13.25;;;3.28;;
9906;SDS011;4992;51.628;6.664;2022-07-19T06:26:25;22.00;;;4.03;;
9906;SDS011;4992;51.628;6.664;2022-07-19T06:28:51;22.92;;;3.80;;
9906;SDS011;4992;51.628;6.664;2022-07-19T06:31:17;8.07;;;2.80;;
9906;SDS011;4992;51.628;6.664;2022-07-19T06:33:44;16.30;;;3.65;;
9906;SDS011;4992;51.628;6.664;2022-07-19T06:36:11;23.23;;;3.75;;
9906;SDS011;4992;51.628;6.664;2022-07-19T06:38:37;19.08;;;3.80;;
9906;SDS011;4992;51.628;6.664;2022-07-19T06:41:03;9.98;;;3.28;;
9906;SDS011;4992;51.628;6.664;2022-07-19T06:43:30;17.67;;;3.50;;
9906;SDS011;4992;51.628;6.664;2022-07-19T06:45:55;11.50;;;2.50;;
9906;SDS011;4992;51.628;6.664;2022-07-19T06:48:21;11.27;;;2.63;;
9906;SDS011;4992;51.628;6.664;2022-07-19T06:50:47;5.68;;;2.80;;
9906;SDS011;4992;51.628;6.664;2022-07-19T06:53:12;2.55;;;1.83;;
9906;SDS011;4992;51.628;6.664;2022-07-19T06:55:38;5.50;;;2.50;;
9906;SDS011;4992;51.628;6.664;2022-07-19T06:58:03;10.82;;;2.60;;
9906;SDS011;4992;51.628;6.664;2022-07-19T07:00:29;6.60;;;1.90;;
9906;SDS011;4992;51.628;6.664;2022-07-19T07:02:55;3.75;;;2.50;;
9906;SDS011;4992;51.628;6.664;2022-07-19T07:05:20;3.67;;;2.17;;
9906;SDS011;4992;51.628;6.664;2022-07-19T07:07:46;6.30;;;2.05;;
9906;SDS011;4992;51.628;6.664;2022-07-19T07:10:12;5.32;;;1.50;;
9906;SDS011;4992;51.628;6.664;2022-07-19T07:12:38;4.40;;;1.60;;
9906;SDS011;4992;51.628;6.664;2022-07-19T07:15:05;10.35;;;2.85;;
9906;SDS011;4992;51.628;6.664;2022-07-19T07:17:31;5.38;;;2.60;;
9906;SDS011;4992;51.628;6.664;2022-07-19T07:19:56;4.93;;;1.60;;
9906;SDS011;4992;51.628;6.664;2022-07-19T07:22:22;3.97;;;1.52;;
9906;SDS011;4992;51.628;6.664;2022-07-19T07:24:48;5.28;;;1.70;;
9906;SDS011;4992;51.628;6.664;2022-07-19T07:27:13;3.47;;;1.42;;
9906;SDS011;4992;51.628;6.664;2022-07-19T07:29:39;6.20;;;1.55;;
9906;SDS011;4992;51.628;6.664;2022-07-19T07:32:04;5.10;;;1.45;;
9906;SDS011;4992;51.628;6.664;2022-07-19T07:34:31;4.38;;;1.67;;
9906;SDS011;4992;51.628;6.664;2022-07-19T07:36:56;7.18;;;2.30;;
9906;SDS011;4992;51.628;6.664;2022-07-19T07:39:22;7.50;;;1.85;;
9906;SDS011;4992;51.628;6.664;2022-07-19T07:41:48;14.20;;;7.25;;
9906;SDS011;4992;51.628;6.664;2022-07-19T07:44:13;5.82;;;2.03;;
9906;SDS011;4992;51.628;6.664;2022-07-19T07:46:39;6.85;;;1.77;;
9906;SDS011;4992;51.628;6.664;2022-07-19T07:49:05;4.32;;;1.70;;
9906;SDS011;4992;51.628;6.664;2022-07-19T07:51:31;5.00;;;2.15;;
9906;SDS011;4992;51.628;6.664;2022-07-19T07:53:57;4.72;;;2.00;;
9906;SDS011;4992;51.628;6.664;2022-07-19T07:56:24;5.72;;;1.88;;
9906;SDS011;4992;51.628;6.664;2022-07-19T07:58:50;3.67;;;1.80;;
9906;SDS011;4992;51.628;6.664;2022-07-19T08:01:15;4.45;;;2.28;;
9906;SDS011;4992;51.628;6.664;2022-07-19T08:03:41;8.85;;;2.30;;
9906;SDS011;4992;51.628;6.664;2022-07-19T08:06:07;4.40;;;2.05;;
9906;SDS011;4992;51.628;6.664;2022-07-19T08:08:33;7.10;;;2.22;;
9906;SDS011;4992;51.628;6.664;2022-07-19T08:10:59;7.95;;;2.08;;
9906;SDS011;4992;51.628;6.664;2022-07-19T08:13:24;8.35;;;2.42;;
9906;SDS011;4992;51.628;6.664;2022-07-19T08:15:50;6.53;;;2.28;;
9906;SDS011;4992;51.628;6.664;2022-07-19T08:18:16;9.55;;;2.70;;
9906;SDS011;4992;51.628;6.664;2022-07-19T08:20:42;10.00;;;3.03;;
9906;SDS011;4992;51.628;6.664;2022-07-19T08:23:08;7.40;;;2.42;;
9906;SDS011;4992;51.628;6.664;2022-07-19T08:25:34;7.07;;;2.75;;
9906;SDS011;4992;51.628;6.664;2022-07-19T08:28:00;7.10;;;2.55;;
9906;SDS011;4992;51.628;6.664;2022-07-19T08:30:26;7.10;;;3.20;;
9906;SDS011;4992;51.628;6.664;2022-07-19T08:32:52;9.98;;;2.58;;
9906;SDS011;4992;51.628;6.664;2022-07-19T08:35:18;8.50;;;3.10;;
9906;SDS011;4992;51.628;6.664;2022-07-19T08:37:44;9.10;;;3.05;;
9906;SDS011;4992;51.628;6.664;2022-07-19T08:40:10;14.48;;;2.72;;
9906;SDS011;4992;51.628;6.664;2022-07-19T08:42:36;9.43;;;3.05;;
9906;SDS011;4992;51.628;6.664;2022-07-19T08:45:06;9.85;;;2.63;;
9906;SDS011;4992;51.628;6.664;2022-07-19T08:47:33;10.95;;;2.88;;
9906;SDS011;4992;51.628;6.664;2022-07-19T08:50:00;14.35;;;2.78;;
9906;SDS011;4992;51.628;6.664;2022-07-19T08:52:28;7.75;;;2.70;;
9906;SDS011;4992;51.628;6.664;2022-07-19T08:54:56;9.30;;;2.83;;
9906;SDS011;4992;51.628;6.664;2022-07-19T08:57:22;6.57;;;2.33;;
9906;SDS011;4992;51.628;6.664;2022-07-19T09:00:06;11.18;;;2.53;;
9906;SDS011;4992;51.628;6.664;2022-07-19T09:02:32;9.75;;;2.25;;
9906;SDS011;4992;51.628;6.664;2022-07-19T09:05:03;6.05;;;2.40;;
9906;SDS011;4992;51.628;6.664;2022-07-19T09:07:33;9.60;;;1.95;;
9906;SDS011;4992;51.628;6.664;2022-07-19T09:10:21;6.78;;;2.22;;
9906;SDS011;4992;51.628;6.664;2022-07-19T09:18:18;7.55;;;2.00;;
9906;SDS011;4992;51.628;6.664;2022-07-19T09:20:46;8.43;;;6.03;;
9906;SDS011;4992;51.628;6.664;2022-07-19T09:23:14;6.00;;;2.35;;
9906;SDS011;4992;51.628;6.664;2022-07-19T09:25:44;9.02;;;2.25;;
9906;SDS011;4992;51.628;6.664;2022-07-19T09:28:14;8.80;;;2.42;;
9906;SDS011;4992;51.628;6.664;2022-07-19T09:30:42;6.03;;;2.25;;
9906;SDS011;4992;51.628;6.664;2022-07-19T09:35:39;5.72;;;2.13;;
9906;SDS011;4992;51.628;6.664;2022-07-19T09:38:16;3.38;;;2.17;;
9906;SDS011;4992;51.628;6.664;2022-07-19T09:40:46;7.65;;;2.13;;
9906;SDS011;4992;51.628;6.664;2022-07-19T09:43:13;4.72;;;1.88;;
9906;SDS011;4992;51.628;6.664;2022-07-19T09:45:39;6.72;;;2.30;;
9906;SDS011;4992;51.628;6.664;2022-07-19T09:48:04;5.97;;;1.85;;
9906;SDS011;4992;51.628;6.664;2022-07-19T09:50:30;7.25;;;1.90;;
9906;SDS011;4992;51.628;6.664;2022-07-19T09:53:02;10.02;;;1.95;;
9906;SDS011;4992;51.628;6.664;2022-07-19T09:55:29;4.80;;;1.85;;
9906;SDS011;4992;51.628;6.664;2022-07-19T09:57:55;7.05;;;1.92;;
9906;SDS011;4992;51.628;6.664;2022-07-19T10:00:23;3.65;;;1.70;;
9906;SDS011;4992;51.628;6.664;2022-07-19T10:02:51;5.40;;;1.77;;
9906;SDS011;4992;51.628;6.664;2022-07-19T10:05:19;7.95;;;2.03;;
9906;SDS011;4992;51.628;6.664;2022-07-19T10:07:44;4.82;;;2.17;;
9906;SDS011;4992;51.628;6.664;2022-07-19T10:10:12;6.90;;;2.25;;
9906;SDS011;4992;51.628;6.664;2022-07-19T10:12:40;7.47;;;1.55;;
9906;SDS011;4992;51.628;6.664;2022-07-19T10:15:08;6.63;;;2.70;;
9906;SDS011;4992;51.628;6.664;2022-07-19T10:17:37;5.97;;;2.05;;
9906;SDS011;4992;51.628;6.664;2022-07-19T10:20:06;5.53;;;2.00;;
9906;SDS011;4992;51.628;6.664;2022-07-19T10:22:33;5.10;;;2.10;;
9906;SDS011;4992;51.628;6.664;2022-07-19T10:27:42;3.38;;;1.52;;
9906;SDS011;4992;51.628;6.664;2022-07-19T10:32:38;6.25;;;1.70;;
9906;SDS011;4992;51.628;6.664;2022-07-19T10:38:26;8.57;;;2.10;;
9906;SDS011;4992;51.628;6.664;2022-07-19T10:43:10;4.70;;;1.80;;
9906;SDS011;4992;51.628;6.664;2022-07-19T10:45:37;5.18;;;1.58;;
9906;SDS011;4992;51.628;6.664;2022-07-19T10:48:05;4.75;;;2.05;;
9906;SDS011;4992;51.628;6.664;2022-07-19T10:50:42;2.00;;;1.55;;
9906;SDS011;4992;51.628;6.664;2022-07-19T10:56:15;4.47;;;1.70;;
9906;SDS011;4992;51.628;6.664;2022-07-19T10:58:47;4.10;;;1.95;;
9906;SDS011;4992;51.628;6.664;2022-07-19T11:01:18;5.75;;;1.67;;
9906;SDS011;4992;51.628;6.664;2022-07-19T11:03:45;3.90;;;1.60;;
9906;SDS011;4992;51.628;6.664;2022-07-19T11:06:18;4.55;;;1.80;;
9906;SDS011;4992;51.628;6.664;2022-07-19T11:08:57;7.00;;;1.70;;
9906;SDS011;4992;51.628;6.664;2022-07-19T11:11:24;2.90;;;1.50;;
9906;SDS011;4992;51.628;6.664;2022-07-19T11:13:52;5.93;;;1.83;;
9906;SDS011;4992;51.628;6.664;2022-07-19T11:16:18;5.07;;;1.92;;
9906;SDS011;4992;51.628;6.664;2022-07-19T11:18:45;3.75;;;2.05;;
9906;SDS011;4992;51.628;6.664;2022-07-19T11:21:12;5.78;;;2.55;;
9906;SDS011;4992;51.628;6.664;2022-07-19T11:23:42;5.25;;;3.78;;
9906;SDS011;4992;51.628;6.664;2022-07-19T11:26:15;3.80;;;1.73;;
9906;SDS011;4992;51.628;6.664;2022-07-19T11:28:46;5.13;;;1.65;;
9906;SDS011;4992;51.628;6.664;2022-07-19T11:31:16;4.78;;;1.40;;
9906;SDS011;4992;51.628;6.664;2022-07-19T11:33:44;3.42;;;1.85;;
9906;SDS011;4992;51.628;6.664;2022-07-19T11:36:12;3.22;;;1.45;;
9906;SDS011;4992;51.628;6.664;2022-07-19T11:38:43;4.95;;;1.75;;
9906;SDS011;4992;51.628;6.664;2022-07-19T11:41:23;2.65;;;1.35;;
9906;SDS011;4992;51.628;6.664;2022-07-19T11:46:17;1.73;;;1.27;;
9906;SDS011;4992;51.628;6.664;2022-07-19T11:48:44;2.75;;;1.30;;
9906;SDS011;4992;51.628;6.664;2022-07-19T11:51:10;6.45;;;2.05;;
9906;SDS011;4992;51.628;6.664;2022-07-19T11:53:39;2.85;;;1.40;;
9906;SDS011;4992;51.628;6.664;2022-07-19T11:56:06;4.00;;;1.30;;
9906;SDS011;4992;51.628;6.664;2022-07-19T11:58:42;2.53;;;1.38;;
9906;SDS011;4992;51.628;6.664;2022-07-19T12:01:08;5.43;;;1.70;;
9906;SDS011;4992;51.628;6.664;2022-07-19T12:03:34;6.28;;;1.75;;
9906;SDS011;4992;51.628;6.664;2022-07-19T12:06:01;3.22;;;1.30;;
9906;SDS011;4992;51.628;6.664;2022-07-19T12:13:43;3.72;;;1.50;;
9906;SDS011;4992;51.628;6.664;2022-07-19T12:16:10;3.65;;;1.40;;
9906;SDS011;4992;51.628;6.664;2022-07-19T12:18:42;1.65;;;0.90;;
9906;SDS011;4992;51.628;6.664;2022-07-19T12:21:19;2.83;;;1.20;;
9906;SDS011;4992;51.628;6.664;2022-07-19T12:26:41;3.70;;;1.30;;
9906;SDS011;4992;51.628;6.664;2022-07-19T12:29:55;2.17;;;1.40;;
9906;SDS011;4992;51.628;6.664;2022-07-19T12:32:15;2.30;;;1.30;;
9906;SDS011;4992;51.628;6.664;2022-07-19T12:34:52;5.45;;;1.30;;
9906;SDS011;4992;51.628;6.664;2022-07-19T12:37:32;4.15;;;1.20;;
9906;SDS011;4992;51.628;6.664;2022-07-19T12:42:54;2.38;;;1.20;;
9906;SDS011;4992;51.628;6.664;2022-07-19T12:45:25;4.50;;;1.10;;
9906;SDS011;4992;51.628;6.664;2022-07-19T12:47:52;2.40;;;1.20;;
9906;SDS011;4992;51.628;6.664;2022-07-19T12:50:21;2.80;;;0.90;;
9906;SDS011;4992;51.628;6.664;2022-07-19T12:52:49;3.00;;;1.30;;
9906;SDS011;4992;51.628;6.664;2022-07-19T12:55:16;2.15;;;1.00;;
9906;SDS011;4992;51.628;6.664;2022-07-19T12:57:42;4.13;;;1.08;;
9906;SDS011;4992;51.628;6.664;2022-07-19T13:00:08;3.13;;;0.98;;
9906;SDS011;4992;51.628;6.664;2022-07-19T13:02:34;1.42;;;1.27;;
9906;SDS011;4992;51.628;6.664;2022-07-19T13:04:59;2.83;;;1.17;;
9906;SDS011;4992;51.628;6.664;2022-07-19T13:07:25;1.45;;;1.00;;
9906;SDS011;4992;51.628;6.664;2022-07-19T13:09:50;3.15;;;1.10;;
9906;SDS011;4992;51.628;6.664;2022-07-19T13:12:16;2.70;;;1.13;;
9906;SDS011;4992;51.628;6.664;2022-07-19T13:14:42;1.17;;;1.08;;
9906;SDS011;4992;51.628;6.664;2022-07-19T13:17:07;5.10;;;1.13;;
9906;SDS011;4992;51.628;6.664;2022-07-19T13:19:36;5.10;;;0.90;;
9906;SDS011;4992;51.628;6.664;2022-07-19T13:22:03;9.95;;;7.60;;
9906;SDS011;4992;51.628;6.664;2022-07-19T13:24:29;4.80;;;4.40;;
9906;SDS011;4992;51.628;6.664;2022-07-19T13:26:54;2.33;;;0.88;;
9906;SDS011;4992;51.628;6.664;2022-07-19T13:29:20;1.88;;;1.05;;
9906;SDS011;4992;51.628;6.664;2022-07-19T13:31:46;3.80;;;1.05;;
9906;SDS011;4992;51.628;6.664;2022-07-19T13:34:12;1.50;;;1.05;;
9906;SDS011;4992;51.628;6.664;2022-07-19T13:36:37;1.83;;;1.13;;
9906;SDS011;4992;51.628;6.664;2022-07-19T13:39:03;2.05;;;0.88;;
9906;SDS011;4992;51.628;6.664;2022-07-19T13:41:29;3.05;;;1.25;;
9906;SDS011;4992;51.628;6.664;2022-07-19T13:43:54;2.78;;;0.90;;
9906;SDS011;4992;51.628;6.664;2022-07-19T13:46:20;1.58;;;1.20;;
9906;SDS011;4992;51.628;6.664;2022-07-19T13:48:46;2.05;;;0.90;;
9906;SDS011;4992;51.628;6.664;2022-07-19T13:51:12;1.20;;;0.80;;
9906;SDS011;4992;51.628;6.664;2022-07-19T13:53:37;1.33;;;0.88;;
9906;SDS011;4992;51.628;6.664;2022-07-19T13:56:04;2.15;;;1.10;;
9906;SDS011;4992;51.628;6.664;2022-07-19T13:58:30;4.90;;;1.27;;
9906;SDS011;4992;51.628;6.664;2022-07-19T14:00:57;4.80;;;4.40;;
9906;SDS011;4992;51.628;6.664;2022-07-19T14:03:23;1.75;;;0.95;;
9906;SDS011;4992;51.628;6.664;2022-07-19T14:05:48;2.00;;;0.90;;
9906;SDS011;4992;51.628;6.664;2022-07-19T14:08:14;2.45;;;1.00;;
9906;SDS011;4992;51.628;6.664;2022-07-19T14:10:40;3.78;;;1.13;;
9906;SDS011;4992;51.628;6.664;2022-07-19T14:13:07;1.40;;;1.00;;
9906;SDS011;4992;51.628;6.664;2022-07-19T14:15:33;2.33;;;0.90;;
9906;SDS011;4992;51.628;6.664;2022-07-19T14:17:58;2.90;;;0.93;;
9906;SDS011;4992;51.628;6.664;2022-07-19T14:20:25;2.78;;;0.93;;
9906;SDS011;4992;51.628;6.664;2022-07-19T14:22:50;1.63;;;1.05;;
9906;SDS011;4992;51.628;6.664;2022-07-19T14:25:16;3.78;;;1.02;;
9906;SDS011;4992;51.628;6.664;2022-07-19T14:27:42;3.58;;;1.10;;
9906;SDS011;4992;51.628;6.664;2022-07-19T14:30:08;3.95;;;1.00;;
9906;SDS011;4992;51.628;6.664;2022-07-19T14:32:34;3.15;;;1.02;;
9906;SDS011;4992;51.628;6.664;2022-07-19T14:34:59;2.15;;;1.00;;
9906;SDS011;4992;51.628;6.664;2022-07-19T14:37:25;2.25;;;1.00;;
9906;SDS011;4992;51.628;6.664;2022-07-19T14:39:51;2.80;;;1.10;;
9906;SDS011;4992;51.628;6.664;2022-07-19T14:42:17;1.15;;;0.98;;
9906;SDS011;4992;51.628;6.664;2022-07-19T14:44:43;2.45;;;1.10;;
9906;SDS011;4992;51.628;6.664;2022-07-19T14:47:08;3.88;;;1.13;;
9906;SDS011;4992;51.628;6.664;2022-07-19T14:49:34;1.05;;;1.05;;
9906;SDS011;4992;51.628;6.664;2022-07-19T14:52:00;2.70;;;1.20;;
9906;SDS011;4992;51.628;6.664;2022-07-19T14:54:26;4.75;;;1.80;;
9906;SDS011;4992;51.628;6.664;2022-07-19T14:56:52;5.22;;;4.10;;
9906;SDS011;4992;51.628;6.664;2022-07-19T14:59:19;2.10;;;1.50;;
9906;SDS011;4992;51.628;6.664;2022-07-19T15:01:45;3.25;;;1.00;;
9906;SDS011;4992;51.628;6.664;2022-07-19T15:04:11;2.80;;;1.10;;
9906;SDS011;4992;51.628;6.664;2022-07-19T15:06:37;2.28;;;1.15;;
9906;SDS011;4992;51.628;6.664;2022-07-19T15:09:02;1.30;;;1.20;;
9906;SDS011;4992;51.628;6.664;2022-07-19T15:11:28;1.40;;;0.85;;
9906;SDS011;4992;51.628;6.664;2022-07-19T15:13:57;1.52;;;0.80;;
9906;SDS011;4992;51.628;6.664;2022-07-19T15:16:26;1.58;;;1.00;;
9906;SDS011;4992;51.628;6.664;2022-07-19T15:18:52;1.02;;;0.93;;
9906;SDS011;4992;51.628;6.664;2022-07-19T15:21:17;1.20;;;1.10;;
9906;SDS011;4992;51.628;6.664;2022-07-19T15:23:43;2.45;;;0.90;;
9906;SDS011;4992;51.628;6.664;2022-07-19T15:26:09;2.90;;;1.92;;
9906;SDS011;4992;51.628;6.664;2022-07-19T15:28:35;2.05;;;1.27;;
9906;SDS011;4992;51.628;6.664;2022-07-19T15:31:02;4.85;;;2.33;;
9906;SDS011;4992;51.628;6.664;2022-07-19T15:33:27;2.15;;;0.80;;
9906;SDS011;4992;51.628;6.664;2022-07-19T15:35:53;1.60;;;0.90;;
9906;SDS011;4992;51.628;6.664;2022-07-19T15:38:19;1.33;;;0.98;;
9906;SDS011;4992;51.628;6.664;2022-07-19T15:40:44;2.67;;;1.15;;
9906;SDS011;4992;51.628;6.664;2022-07-19T15:43:10;1.67;;;1.13;;
9906;SDS011;4992;51.628;6.664;2022-07-19T15:45:36;2.70;;;0.95;;
9906;SDS011;4992;51.628;6.664;2022-07-19T15:48:01;2.95;;;1.10;;